Time;durP1;ratioP1;P1;durP2;ratioP2;P2;SDS_P1;SDS_P2;PMS_P1;PMS_P2;Temp;Humidity;BMP_temperature;BMP_pressure;BME280_temperature;BME280_humidity;BME280_pressure;Samples;Min_cycle;Max_cycle;Signal;HPM_P1;HPM_P2
2023/07/30 00:00:16;;;;;;;21.58;18.15;;;15.30;99.90;;;;;;5034319;28;20021;-80
2023/07/30 00:02:42;;;;;;;21.02;18.48;;;15.40;99.90;;;;;;5033830;28;20053;-82
2023/07/30 00:05:08;;;;;;;28.90;19.63;;;15.40;99.90;;;;;;5029594;28;20048;-81
2023/07/30 00:07:34;;;;;;;28.45;20.88;;;15.40;99.90;;;;;;5053421;28;20096;-79
2023/07/30 00:10:00;;;;;;;29.20;22.02;;;15.40;99.90;;;;;;5054490;28;20040;-81
2023/07/30 00:12:25;;;;;;;26.80;22.40;;;15.40;99.90;;;;;;5038956;28;20025;-81
2023/07/30 00:14:51;;;;;;;25.85;20.90;;;15.40;99.90;;;;;;5038259;28;20032;-81
2023/07/30 00:17:17;;;;;;;23.77;19.45;;;15.30;99.90;;;;;;5037382;28;20033;-80
2023/07/30 00:19:43;;;;;;;27.42;20.13;;;15.30;99.90;;;;;;5036718;28;20066;-80
2023/07/30 00:22:09;;;;;;;28.08;21.65;;;15.30;99.90;;;;;;5054262;28;20475;-81
2023/07/30 00:24:35;;;;;;;29.85;22.08;;;15.30;99.90;;;;;;5037993;28;20047;-80
2023/07/30 00:27:01;;;;;;;25.65;21.73;;;15.30;99.90;;;;;;5053199;28;20062;-80
2023/07/30 00:29:27;;;;;;;28.13;19.70;;;15.30;99.90;;;;;;5053165;28;20490;-80
2023/07/30 00:31:52;;;;;;;25.02;20.23;;;15.20;99.90;;;;;;5035407;28;20044;-80
2023/07/30 00:34:19;;;;;;;23.88;19.40;;;15.20;99.90;;;;;;5053419;28;20092;-81
2023/07/30 00:36:45;;;;;;;23.67;18.70;;;15.20;99.90;;;;;;5053577;28;20033;-81
2023/07/30 00:39:11;;;;;;;25.33;18.52;;;15.20;99.90;;;;;;5055132;28;20035;-81
2023/07/30 00:41:37;;;;;;;22.70;17.17;;;15.20;99.90;;;;;;5055360;28;20036;-81
2023/07/30 00:44:04;;;;;;;26.40;18.48;;;15.20;99.90;;;;;;5056302;28;20017;-81
2023/07/30 00:46:30;;;;;;;21.45;17.55;;;15.10;99.90;;;;;;5053953;28;20032;-81
2023/07/30 00:48:56;;;;;;;21.30;17.63;;;15.10;99.90;;;;;;5053894;28;20029;-81
2023/07/30 00:51:24;;;;;;;25.48;16.92;;;15.10;99.90;;;;;;5035425;28;20032;-79
2023/07/30 00:53:49;;;;;;;18.55;14.88;;;15.00;99.90;;;;;;5053238;28;20096;-79
2023/07/30 00:56:16;;;;;;;17.95;14.80;;;15.00;99.90;;;;;;5057621;28;20132;-79
2023/07/30 00:58:44;;;;;;;18.23;14.25;;;15.00;99.90;;;;;;5036869;28;20558;-80
2023/07/30 01:01:10;;;;;;;17.85;14.82;;;15.00;99.90;;;;;;5041268;28;20037;-79
2023/07/30 01:03:37;;;;;;;18.98;15.05;;;15.00;99.90;;;;;;5064569;28;20029;-80
2023/07/30 01:06:03;;;;;;;18.23;13.43;;;14.90;99.90;;;;;;5040682;28;20044;-80
2023/07/30 01:08:29;;;;;;;19.92;14.43;;;14.90;99.90;;;;;;5053082;28;20017;-81
2023/07/30 01:10:55;;;;;;;20.48;14.70;;;14.90;99.90;;;;;;5053071;28;20025;-81
2023/07/30 01:13:22;;;;;;;18.70;15.50;;;14.90;99.90;;;;;;5036724;28;20162;-80
2023/07/30 01:15:49;;;;;;;16.52;14.23;;;14.80;99.90;;;;;;5034730;28;20428;-81
2023/07/30 01:18:15;;;;;;;20.03;12.87;;;14.80;99.90;;;;;;5035038;28;20036;-81
2023/07/30 01:20:41;;;;;;;15.65;13.85;;;14.80;99.90;;;;;;5038320;28;20270;-80
2023/07/30 01:23:07;;;;;;;18.55;13.90;;;14.80;99.90;;;;;;5036457;28;20029;-81
2023/07/30 01:25:36;;;;;;;21.42;13.63;;;14.80;99.90;;;;;;5057405;28;20600;-80
2023/07/30 01:28:04;;;;;;;16.58;14.43;;;14.70;99.90;;;;;;5037215;28;20450;-80
2023/07/30 01:30:40;;;;;;;19.55;14.00;;;14.70;99.90;;;;;;5033474;28;20033;-80
2023/07/30 01:33:07;;;;;;;18.67;14.30;;;14.60;99.90;;;;;;5038787;28;20150;-80
2023/07/30 01:35:35;;;;;;;20.60;14.32;;;14.70;99.90;;;;;;5031064;28;20032;-81
2023/07/30 01:38:03;;;;;;;19.20;15.50;;;14.70;99.90;;;;;;5042210;28;20035;-80
2023/07/30 01:40:29;;;;;;;20.52;15.60;;;14.70;99.90;;;;;;5052406;28;20056;-80
2023/07/30 01:42:55;;;;;;;19.52;15.43;;;14.70;99.90;;;;;;5034869;28;20462;-80
2023/07/30 01:45:21;;;;;;;17.90;14.13;;;14.70;99.90;;;;;;5044134;28;20037;-81
2023/07/30 01:47:47;;;;;;;17.98;15.15;;;14.70;99.90;;;;;;5034562;28;20032;-81
2023/07/30 01:50:13;;;;;;;21.13;15.65;;;14.70;99.90;;;;;;5034192;28;20072;-79
2023/07/30 01:52:39;;;;;;;20.65;15.80;;;14.70;99.90;;;;;;5052329;28;20505;-80
2023/07/30 01:55:05;;;;;;;23.58;16.75;;;14.70;99.90;;;;;;5052590;28;20032;-81
2023/07/30 01:57:31;;;;;;;21.13;16.60;;;14.60;99.90;;;;;;5045077;28;20056;-79
2023/07/30 01:59:57;;;;;;;19.10;15.68;;;14.70;99.90;;;;;;5035425;28;20021;-81
2023/07/30 02:02:23;;;;;;;21.02;17.38;;;14.70;99.90;;;;;;5038231;28;20034;-80
2023/07/30 02:04:48;;;;;;;18.25;16.27;;;14.60;99.90;;;;;;5037631;28;20410;-80
2023/07/30 02:07:14;;;;;;;19.40;16.90;;;14.70;99.90;;;;;;5036067;28;20029;-80
2023/07/30 02:09:40;;;;;;;18.77;15.50;;;14.70;99.90;;;;;;5056161;28;20044;-80
2023/07/30 02:12:07;;;;;;;18.30;16.20;;;14.70;99.90;;;;;;5055356;28;20188;-80
2023/07/30 02:14:32;;;;;;;17.65;15.13;;;14.70;99.90;;;;;;5051903;28;20466;-81
2023/07/30 02:16:58;;;;;;;19.65;15.93;;;14.70;99.90;;;;;;5051650;28;20115;-81
2023/07/30 02:19:24;;;;;;;19.25;15.35;;;14.80;99.90;;;;;;5034078;28;20017;-80
2023/07/30 02:21:50;;;;;;;14.55;12.02;;;14.80;99.90;;;;;;5052615;28;20028;-81
2023/07/30 02:24:16;;;;;;;13.85;12.18;;;14.90;99.90;;;;;;5034147;28;20078;-80
2023/07/30 02:26:42;;;;;;;17.85;12.38;;;15.00;99.90;;;;;;5035251;28;20116;-80
2023/07/30 02:29:08;;;;;;;13.95;11.70;;;15.00;99.90;;;;;;5053651;28;20053;-80
2023/07/30 02:31:34;;;;;;;13.88;11.45;;;15.10;99.90;;;;;;5055676;28;20483;-83
2023/07/30 02:33:59;;;;;;;14.05;11.60;;;15.10;99.90;;;;;;5055980;28;20021;-83
2023/07/30 02:36:25;;;;;;;13.45;11.38;;;15.10;99.90;;;;;;5026996;28;20044;-79
2023/07/30 02:38:51;;;;;;;12.90;11.25;;;15.20;99.90;;;;;;5061267;28;20019;-81
2023/07/30 02:41:17;;;;;;;17.52;10.77;;;15.20;99.90;;;;;;5040600;28;20025;-81
2023/07/30 02:43:43;;;;;;;15.88;9.90;;;15.20;99.90;;;;;;5056649;28;20025;-80
2023/07/30 02:46:09;;;;;;;14.80;10.05;;;15.30;99.90;;;;;;5027460;28;20073;-80
2023/07/30 02:48:35;;;;;;;18.02;11.43;;;15.30;99.90;;;;;;5052057;28;20017;-82
2023/07/30 02:51:01;;;;;;;15.55;11.07;;;15.30;99.90;;;;;;5052133;28;20086;-80
2023/07/30 02:53:27;;;;;;;12.05;10.70;;;15.30;99.90;;;;;;5048695;28;20021;-82
2023/07/30 02:55:53;;;;;;;18.00;10.30;;;15.30;99.90;;;;;;5041850;28;20036;-81
2023/07/30 02:58:19;;;;;;;11.75;9.73;;;15.40;99.90;;;;;;5055872;28;20497;-81
2023/07/30 03:00:45;;;;;;;10.88;9.50;;;15.40;99.90;;;;;;5055925;28;20017;-80
2023/07/30 03:03:11;;;;;;;17.10;10.20;;;15.40;99.90;;;;;;5070485;28;20021;-80
2023/07/30 03:05:36;;;;;;;14.45;10.30;;;15.50;99.90;;;;;;5070273;28;20040;-80
2023/07/30 03:08:02;;;;;;;13.65;9.90;;;15.50;99.90;;;;;;5066914;28;20117;-80
2023/07/30 03:10:28;;;;;;;11.60;9.70;;;15.50;99.90;;;;;;5064304;28;20028;-81
2023/07/30 03:12:54;;;;;;;13.00;9.95;;;15.50;99.90;;;;;;5047435;28;20055;-80
2023/07/30 03:15:20;;;;;;;10.30;8.60;;;15.60;99.90;;;;;;5039055;28;20096;-80
2023/07/30 03:17:46;;;;;;;11.63;8.63;;;15.70;99.90;;;;;;5036977;28;20120;-81
2023/07/30 03:20:12;;;;;;;13.90;9.70;;;15.80;99.90;;;;;;5054894;28;20025;-81
2023/07/30 03:22:38;;;;;;;11.02;9.30;;;15.90;99.90;;;;;;5054593;28;20035;-80
2023/07/30 03:25:04;;;;;;;13.05;8.25;;;16.00;99.90;;;;;;5054817;28;20017;-81
2023/07/30 03:27:31;;;;;;;9.48;8.05;;;16.20;99.90;;;;;;5054649;28;20021;-80
2023/07/30 03:29:57;;;;;;;9.38;8.25;;;16.30;99.90;;;;;;5054507;28;20035;-81
2023/07/30 03:32:23;;;;;;;10.85;8.75;;;16.30;99.90;;;;;;5055376;28;20037;-80
2023/07/30 03:34:49;;;;;;;9.75;7.97;;;16.50;99.90;;;;;;5055528;28;20064;-79
2023/07/30 03:37:14;;;;;;;10.23;8.27;;;16.70;99.90;;;;;;5044021;28;20032;-81
2023/07/30 03:39:40;;;;;;;8.02;6.80;;;16.80;99.90;;;;;;5057404;28;20024;-80
2023/07/30 03:42:06;;;;;;;8.30;7.50;;;17.00;99.90;;;;;;5037075;28;20041;-81
2023/07/30 03:44:32;;;;;;;10.63;6.90;;;17.10;99.90;;;;;;5054899;28;20017;-81
2023/07/30 03:46:58;;;;;;;8.88;7.70;;;17.20;99.90;;;;;;5055064;28;20037;-80
2023/07/30 03:49:24;;;;;;;7.55;6.15;;;17.30;99.90;;;;;;5054876;28;20032;-81
2023/07/30 03:51:50;;;;;;;13.63;8.02;;;17.40;99.90;;;;;;5036319;28;20029;-81
2023/07/30 03:54:16;;;;;;;10.10;6.38;;;17.50;99.90;;;;;;5054352;28;20052;-81
2023/07/30 03:56:41;;;;;;;10.77;7.07;;;17.50;99.90;;;;;;5057282;28;20052;-81
2023/07/30 03:59:07;;;;;;;7.88;6.25;;;17.60;99.90;;;;;;5051404;28;20033;-81
2023/07/30 04:01:33;;;;;;;7.80;6.05;;;17.50;99.90;;;;;;5044202;28;20063;-79
2023/07/30 04:03:59;;;;;;;6.38;5.47;;;17.40;99.90;;;;;;5051663;28;20021;-80
2023/07/30 04:06:25;;;;;;;8.02;6.75;;;17.50;99.90;;;;;;5046945;28;20037;-81
2023/07/30 04:08:51;;;;;;;10.10;6.47;;;17.50;99.90;;;;;;5048139;28;20021;-82
2023/07/30 04:11:17;;;;;;;8.82;6.75;;;17.50;99.90;;;;;;5053375;28;20031;-80
2023/07/30 04:13:43;;;;;;;8.85;6.28;;;17.50;99.90;;;;;;5042341;28;20032;-81
2023/07/30 04:16:09;;;;;;;8.52;6.25;;;17.50;99.90;;;;;;5052101;28;20099;-81
2023/07/30 04:18:34;;;;;;;9.40;5.70;;;17.50;99.90;;;;;;5054030;28;20084;-82
2023/07/30 04:21:00;;;;;;;9.05;6.13;;;17.50;99.90;;;;;;5054496;28;20479;-81
2023/07/30 04:23:26;;;;;;;7.90;6.13;;;17.50;99.90;;;;;;5049951;28;20022;-81
2023/07/30 04:25:52;;;;;;;8.80;6.32;;;17.50;99.90;;;;;;5048359;28;20021;-81
2023/07/30 04:28:18;;;;;;;9.82;6.07;;;17.50;99.90;;;;;;5053762;28;20402;-80
2023/07/30 04:30:44;;;;;;;6.82;5.07;;;17.50;99.90;;;;;;5054925;28;20039;-80
2023/07/30 04:33:10;;;;;;;8.68;5.40;;;17.50;99.90;;;;;;5057411;28;20080;-81
2023/07/30 04:35:36;;;;;;;7.97;5.40;;;17.40;99.90;;;;;;5056026;28;20056;-81
2023/07/30 04:38:03;;;;;;;8.30;5.18;;;17.40;99.90;;;;;;5049093;28;20108;-81
2023/07/30 04:40:29;;;;;;;9.27;5.90;;;17.40;99.90;;;;;;5035735;28;20040;-82
2023/07/30 04:42:55;;;;;;;9.82;5.88;;;17.50;99.90;;;;;;5053309;28;20028;-82
2023/07/30 04:45:21;;;;;;;6.28;5.13;;;17.60;99.90;;;;;;5033481;28;20017;-82
2023/07/30 04:47:47;;;;;;;8.30;5.47;;;17.70;99.90;;;;;;5041356;28;20364;-82
2023/07/30 04:50:13;;;;;;;11.40;6.10;;;17.80;99.90;;;;;;5051840;28;20546;-80
2023/07/30 04:52:39;;;;;;;8.63;5.35;;;17.90;99.90;;;;;;5049177;28;20062;-81
2023/07/30 04:55:05;;;;;;;6.07;4.80;;;18.00;99.90;;;;;;5061161;28;20018;-81
2023/07/30 04:57:31;;;;;;;8.85;4.97;;;18.10;99.90;;;;;;5067043;28;20032;-81
2023/07/30 04:59:57;;;;;;;8.77;5.15;;;18.30;99.90;;;;;;5065272;28;20393;-83
2023/07/30 05:02:23;;;;;;;7.20;5.30;;;18.40;99.90;;;;;;5031312;28;20603;-79
2023/07/30 05:04:48;;;;;;;7.70;4.47;;;18.70;99.90;;;;;;5046772;28;20096;-81
2023/07/30 05:07:14;;;;;;;5.97;4.75;;;19.00;98.90;;;;;;5060199;28;20025;-81
2023/07/30 05:09:40;;;;;;;9.13;5.05;;;19.50;98.40;;;;;;5064696;28;20017;-80
2023/07/30 05:12:06;;;;;;;9.18;6.57;;;19.80;97.00;;;;;;5046560;28;20037;-81
2023/07/30 05:14:32;;;;;;;8.25;4.38;;;20.50;96.60;;;;;;5054430;28;20016;-82
2023/07/30 05:16:58;;;;;;;7.47;4.38;;;21.20;94.60;;;;;;5058051;28;20039;-81
2023/07/30 05:19:24;;;;;;;5.90;4.90;;;21.60;93.70;;;;;;5061594;28;20035;-82
2023/07/30 05:21:50;;;;;;;5.55;4.53;;;21.80;92.60;;;;;;5059028;28;20023;-82
2023/07/30 05:24:15;;;;;;;5.38;4.45;;;21.60;92.10;;;;;;5045780;28;20017;-81
2023/07/30 05:26:41;;;;;;;6.00;4.15;;;21.60;92.50;;;;;;5037790;28;20048;-81
2023/07/30 05:29:07;;;;;;;6.75;4.65;;;21.80;92.40;;;;;;5058161;28;20383;-80
2023/07/30 05:31:33;;;;;;;5.32;4.47;;;22.00;91.50;;;;;;5063939;28;20362;-83
2023/07/30 05:33:59;;;;;;;4.80;4.20;;;22.00;90.70;;;;;;5045617;28;20048;-82
2023/07/30 05:36:25;;;;;;;7.88;4.82;;;21.60;91.20;;;;;;5041173;28;20068;-81
2023/07/30 05:38:51;;;;;;;5.03;4.15;;;21.40;91.70;;;;;;5038022;28;20017;-82
2023/07/30 05:41:17;;;;;;;6.82;4.95;;;21.20;92.10;;;;;;5053434;28;20032;-84
2023/07/30 05:43:43;;;;;;;9.07;4.65;;;21.10;92.30;;;;;;5035135;28;20072;-82
2023/07/30 05:46:09;;;;;;;7.82;4.18;;;21.10;92.40;;;;;;5027142;28;20125;-82
2023/07/30 05:48:35;;;;;;;6.50;4.25;;;21.10;92.20;;;;;;5030631;28;20526;-83
2023/07/30 05:51:01;;;;;;;5.88;4.30;;;21.20;92.20;;;;;;5053507;28;20017;-81
2023/07/30 05:53:26;;;;;;;4.88;4.07;;;21.10;91.80;;;;;;5047507;28;20532;-83
2023/07/30 05:55:52;;;;;;;6.22;3.92;;;21.10;91.90;;;;;;5036313;28;20024;-84
2023/07/30 05:58:18;;;;;;;5.47;4.10;;;20.90;92.00;;;;;;5035702;28;20068;-82
2023/07/30 06:00:44;;;;;;;6.40;4.40;;;21.00;92.00;;;;;;5053922;28;20017;-82
2023/07/30 06:03:10;;;;;;;7.97;3.85;;;21.20;91.90;;;;;;5033286;28;20025;-83
2023/07/30 06:05:42;;;;;;;4.60;3.58;;;21.30;91.40;;;;;;5048725;28;20052;-82
2023/07/30 06:08:08;;;;;;;4.32;3.92;;;21.20;91.40;;;;;;5056320;28;20027;-82
2023/07/30 06:10:38;;;;;;;4.90;4.40;;;21.10;91.50;;;;;;5057402;28;20021;-81
2023/07/30 06:13:05;;;;;;;4.05;3.33;;;21.00;91.80;;;;;;5038759;28;20261;-82
2023/07/30 06:15:32;;;;;;;5.97;3.83;;;21.00;91.60;;;;;;5026092;28;20026;-81
2023/07/30 06:17:58;;;;;;;6.50;4.25;;;21.30;91.30;;;;;;5035795;28;20041;-84
2023/07/30 06:20:24;;;;;;;4.93;3.50;;;21.80;90.90;;;;;;5036017;28;20032;-81
2023/07/30 06:22:50;;;;;;;4.50;3.53;;;22.60;89.00;;;;;;5064966;28;20020;-82
2023/07/30 06:25:16;;;;;;;7.10;5.18;;;22.90;86.10;;;;;;5047356;28;20429;-82
2023/07/30 06:27:42;;;;;;;4.95;3.50;;;22.80;85.20;;;;;;5058293;28;20021;-82
2023/07/30 06:30:08;;;;;;;7.68;4.35;;;22.80;86.20;;;;;;5064499;28;20020;-83
2023/07/30 06:32:34;;;;;;;5.13;3.38;;;22.90;85.00;;;;;;5061781;28;20388;-82
2023/07/30 06:35:00;;;;;;;4.88;3.58;;;22.90;84.80;;;;;;5056031;28;20036;-83
2023/07/30 06:37:28;;;;;;;6.45;3.50;;;23.00;86.00;;;;;;5030465;28;20030;-82
2023/07/30 06:39:54;;;;;;;6.32;3.45;;;23.00;83.80;;;;;;5036523;28;20021;-83
2023/07/30 06:42:20;;;;;;;6.03;3.08;;;23.50;83.00;;;;;;5051952;28;20091;-81
2023/07/30 06:44:46;;;;;;;7.75;3.70;;;24.20;80.70;;;;;;5052220;28;20222;-81
2023/07/30 06:47:12;;;;;;;4.20;3.00;;;25.40;78.40;;;;;;5024517;28;20025;-83
2023/07/30 06:49:38;;;;;;;4.53;3.15;;;26.50;74.50;;;;;;5041287;28;20025;-82
2023/07/30 06:52:04;;;;;;;5.35;3.08;;;26.80;71.20;;;;;;5046773;28;20427;-82
2023/07/30 06:54:30;;;;;;;6.87;3.40;;;26.90;69.40;;;;;;5034957;28;20051;-81
2023/07/30 06:56:56;;;;;;;4.93;3.15;;;27.30;69.30;;;;;;5051566;28;20048;-82
2023/07/30 06:59:22;;;;;;;3.92;3.25;;;28.70;67.70;;;;;;5034141;28;20360;-81
2023/07/30 07:01:47;;;;;;;6.17;3.37;;;30.30;62.10;;;;;;5051629;28;20433;-81
2023/07/30 07:04:13;;;;;;;6.15;2.95;;;30.80;60.00;;;;;;5048729;28;20384;-82
2023/07/30 07:06:39;;;;;;;7.30;3.10;;;30.90;57.80;;;;;;5033906;28;20033;-81
2023/07/30 07:09:05;;;;;;;6.82;3.45;;;31.10;57.20;;;;;;5050040;28;20485;-82
2023/07/30 07:11:31;;;;;;;3.97;2.50;;;31.50;56.50;;;;;;5022294;28;20017;-82
2023/07/30 07:13:57;;;;;;;6.22;2.88;;;32.00;54.80;;;;;;5053408;28;20056;-82
2023/07/30 07:16:23;;;;;;;3.60;2.73;;;32.50;53.80;;;;;;5053528;28;20072;-81
2023/07/30 07:18:49;;;;;;;3.77;2.50;;;32.80;53.20;;;;;;5058092;28;20017;-84
2023/07/30 07:21:15;;;;;;;6.97;3.07;;;33.30;52.10;;;;;;5061110;28;20078;-83
2023/07/30 07:23:41;;;;;;;4.95;3.22;;;33.90;51.20;;;;;;5057349;28;20337;-83
2023/07/30 07:26:07;;;;;;;6.60;2.67;;;34.60;48.90;;;;;;5058126;28;20052;-82
2023/07/30 07:28:33;;;;;;;6.83;2.90;;;34.00;49.30;;;;;;5051459;28;20665;-83
2023/07/30 07:30:59;;;;;;;5.80;2.92;;;34.20;48.70;;;;;;5038305;28;20490;-82
2023/07/30 07:33:25;;;;;;;4.85;2.95;;;34.50;48.00;;;;;;5056030;28;20021;-82
2023/07/30 07:35:51;;;;;;;3.30;2.50;;;34.50;47.20;;;;;;5049992;28;20025;-83
2023/07/30 07:38:17;;;;;;;8.82;3.13;;;35.20;46.70;;;;;;5050241;28;20032;-82
2023/07/30 07:40:43;;;;;;;3.83;2.03;;;35.60;45.90;;;;;;5037842;28;20021;-82
2023/07/30 07:43:09;;;;;;;6.28;2.58;;;35.80;44.60;;;;;;5055109;28;20036;-83
2023/07/30 07:45:35;;;;;;;4.97;2.47;;;35.50;45.00;;;;;;5037645;28;20024;-84
2023/07/30 07:48:01;;;;;;;4.90;2.97;;;35.40;44.80;;;;;;5039074;28;20033;-84
2023/07/30 07:50:27;;;;;;;4.93;2.40;;;35.70;44.50;;;;;;5056603;28;20029;-83
2023/07/30 07:52:53;;;;;;;3.90;2.20;;;35.70;44.60;;;;;;5056328;28;20035;-83
2023/07/30 07:55:19;;;;;;;3.97;2.55;;;35.80;43.60;;;;;;5059335;28;20025;-83
2023/07/30 07:57:45;;;;;;;4.03;2.58;;;35.70;43.80;;;;;;5058580;28;20036;-84
2023/07/30 08:00:11;;;;;;;9.05;3.35;;;35.70;43.40;;;;;;5055189;28;20051;-83
2023/07/30 08:02:37;;;;;;;6.00;3.05;;;35.90;44.10;;;;;;5058648;28;20088;-83
2023/07/30 08:05:03;;;;;;;4.63;2.53;;;34.40;44.10;;;;;;5066272;28;20045;-82
2023/07/30 08:07:29;;;;;;;4.20;2.45;;;33.90;45.30;;;;;;5046425;28;20503;-83
2023/07/30 08:09:55;;;;;;;6.20;2.73;;;34.20;45.40;;;;;;5066774;28;20032;-82
2023/07/30 08:12:21;;;;;;;4.82;2.70;;;35.10;44.80;;;;;;5063255;28;20052;-83
2023/07/30 08:14:47;;;;;;;4.53;2.75;;;35.60;43.40;;;;;;5041108;28;20082;-85
2023/07/30 08:17:14;;;;;;;4.70;2.70;;;35.20;43.60;;;;;;5046166;28;20430;-83
2023/07/30 08:19:40;;;;;;;9.55;3.05;;;33.90;45.10;;;;;;5055435;28;20012;-84
2023/07/30 08:22:06;;;;;;;4.63;2.88;;;34.00;45.60;;;;;;5051500;28;20032;-83
2023/07/30 08:24:32;;;;;;;5.00;3.07;;;33.00;45.80;;;;;;5069234;28;20080;-83
2023/07/30 08:26:58;;;;;;;5.17;3.13;;;31.30;47.80;;;;;;5052978;28;20028;-82
2023/07/30 08:29:24;;;;;;;4.95;2.70;;;31.40;49.00;;;;;;5059638;28;20017;-83
2023/07/30 08:31:50;;;;;;;5.63;3.13;;;32.60;48.30;;;;;;5050314;28;20082;-83
2023/07/30 08:34:16;;;;;;;4.50;2.90;;;32.70;46.50;;;;;;5044542;28;20028;-84
2023/07/30 08:36:42;;;;;;;6.55;3.83;;;31.60;47.70;;;;;;5041415;28;20294;-83
2023/07/30 08:39:09;;;;;;;3.95;2.42;;;;;;;;;;5029381;28;20147;-83
2023/07/30 08:41:35;;;;;;;6.55;3.65;;;;;;;;;;5053838;28;20431;-82
2023/07/30 08:44:01;;;;;;;5.60;3.17;;;27.40;53.70;;;;;;5035513;28;20068;-83
2023/07/30 08:46:28;;;;;;;6.40;3.38;;;27.50;56.10;;;;;;5036648;28;20025;-81
2023/07/30 08:48:54;;;;;;;3.58;2.67;;;28.50;54.80;;;;;;5044250;28;20035;-81
2023/07/30 08:51:22;;;;;;;3.65;2.95;;;29.20;51.90;;;;;;5063474;28;20014;-84
2023/07/30 08:53:48;;;;;;;3.70;2.50;;;28.40;52.30;;;;;;5047483;28;20445;-83
2023/07/30 08:56:14;;;;;;;6.43;3.25;;;28.20;54.40;;;;;;5060736;28;20560;-84
2023/07/30 08:58:41;;;;;;;4.23;2.60;;;;;;;;;;5067231;28;20024;-84
2023/07/30 09:01:07;;;;;;;;;;;;;;;;;;5031102;28;20273;-86
2023/07/30 09:03:37;;;;;;;4.13;2.50;;;30.20;53.40;;;;;;5055587;28;20258;-82
2023/07/30 09:06:03;;;;;;;4.40;2.50;;;33.80;45.90;;;;;;5050598;28;20074;-81
2023/07/30 09:08:31;;;;;;;3.30;2.50;;;32.80;45.50;;;;;;5061029;28;20040;-81
2023/07/30 09:11:06;;;;;;;5.22;2.65;;;31.20;47.80;;;;;;5067027;28;20059;-83
2023/07/30 09:13:37;;;;;;;3.50;2.80;;;30.40;49.10;;;;;;5069783;28;20047;-81
2023/07/30 09:16:10;;;;;;;4.05;2.55;;;31.10;49.30;;;;;;5056721;28;20502;-81
2023/07/30 09:18:43;;;;;;;2.88;2.38;;;30.80;48.50;;;;;;5052929;28;20032;-81
2023/07/30 09:21:13;;;;;;;4.43;2.85;;;29.70;49.80;;;;;;5053709;28;20029;-82
2023/07/30 09:23:42;;;;;;;5.60;2.80;;;28.60;52.00;;;;;;5057379;28;20025;-81
2023/07/30 09:26:08;;;;;;;4.47;3.03;;;28.50;52.10;;;;;;5082631;28;20104;-86
2023/07/30 09:28:34;;;;;;;3.70;2.27;;;29.20;51.20;;;;;;5046742;28;20460;-83
2023/07/30 09:31:02;;;;;;;3.07;2.60;;;29.80;50.20;;;;;;5043552;28;20025;-90
2023/07/30 09:33:28;;;;;;;3.35;2.42;;;29.70;49.70;;;;;;5049546;28;20024;-85
2023/07/30 09:35:55;;;;;;;6.97;2.80;;;29.00;50.80;;;;;;5043077;28;20029;-91
2023/07/30 09:38:22;;;;;;;3.85;2.20;;;29.50;50.00;;;;;;5056817;28;20021;-86
2023/07/30 09:40:49;;;;;;;3.13;1.97;;;30.10;49.00;;;;;;5055060;28;20033;-85
2023/07/30 09:43:15;;;;;;;3.42;2.45;;;30.90;48.20;;;;;;5054080;28;20051;-85
2023/07/30 09:45:47;;;;;;;3.42;2.60;;;31.70;47.10;;;;;;5034241;28;20033;-84
2023/07/30 09:48:13;;;;;;;3.50;2.17;;;32.90;46.10;;;;;;5026974;28;20491;-84
2023/07/30 09:50:41;;;;;;;3.95;2.83;;;33.20;44.40;;;;;;5052664;28;20012;-85
2023/07/30 09:53:08;;;;;;;2.70;1.98;;;32.90;44.40;;;;;;5043346;28;20056;-85
2023/07/30 09:55:35;;;;;;;3.60;2.45;;;32.90;44.20;;;;;;5027077;28;20051;-84
2023/07/30 09:58:01;;;;;;;5.68;2.85;;;33.30;43.60;;;;;;5051100;28;20037;-84
2023/07/30 10:00:29;;;;;;;4.07;2.30;;;32.90;43.80;;;;;;5038760;28;20026;-84
2023/07/30 10:02:57;;;;;;;2.83;2.15;;;31.80;45.30;;;;;;5067469;28;20312;-90
2023/07/30 10:05:28;;;;;;;3.28;2.20;;;31.00;46.30;;;;;;5049123;28;20038;-89
2023/07/30 10:07:58;;;;;;;4.53;2.22;;;31.10;47.00;;;;;;5054655;28;20051;-89
2023/07/30 10:10:25;;;;;;;3.83;2.30;;;30.80;46.30;;;;;;5063059;28;20104;-85
2023/07/30 10:12:53;;;;;;;3.95;2.47;;;29.50;48.00;;;;;;5024457;28;20032;-84
2023/07/30 10:15:23;;;;;;;3.30;2.80;;;;;;;;;;5056732;28;20363;-82
2023/07/30 10:17:52;;;;;;;4.22;2.30;;;28.40;50.30;;;;;;5063553;28;20036;-82
2023/07/30 10:20:24;;;;;;;3.25;2.60;;;27.00;53.20;;;;;;5070902;28;20482;-82
2023/07/30 10:22:58;;;;;;;3.28;2.47;;;28.00;52.40;;;;;;5056490;28;20490;-83
2023/07/30 10:25:45;;;;;;;3.25;2.22;;;29.40;50.20;;;;;;5065541;28;20494;-87
2023/07/30 10:28:29;;;;;;;3.25;2.42;;;30.70;48.50;;;;;;5058000;28;20087;-86
2023/07/30 10:31:09;;;;;;;5.15;2.40;;;30.10;47.60;;;;;;5061915;28;20017;-85
2023/07/30 10:33:51;;;;;;;5.55;2.60;;;29.10;48.60;;;;;;5037511;28;20424;-88
2023/07/30 10:36:30;;;;;;;3.40;2.53;;;27.70;51.10;;;;;;5058569;28;20486;-86
2023/07/30 10:39:17;;;;;;;4.47;2.45;;;26.60;52.80;;;;;;5055949;28;20059;-86
2023/07/30 10:41:45;;;;;;;5.53;2.70;;;26.30;54.60;;;;;;5048942;28;20032;-88
2023/07/30 10:44:21;;;;;;;5.57;2.80;;;25.80;55.30;;;;;;5036551;28;20494;-86
2023/07/30 10:46:47;;;;;;;3.97;2.80;;;25.40;56.20;;;;;;5047997;28;20063;-89
2023/07/30 10:49:13;;;;;;;4.00;2.80;;;25.00;57.00;;;;;;5068159;28;20057;-87
2023/07/30 10:51:40;;;;;;;3.30;2.80;;;24.70;57.90;;;;;;5057376;28;20032;-85
2023/07/30 10:54:08;;;;;;;4.05;2.70;;;24.40;58.50;;;;;;5059662;28;20021;-87
2023/07/30 10:56:37;;;;;;;3.72;2.50;;;24.40;58.20;;;;;;5060241;28;20090;-88
2023/07/30 10:59:07;;;;;;;3.90;2.58;;;24.30;58.70;;;;;;5078280;28;20016;-88
2023/07/30 11:01:38;;;;;;;5.07;2.83;;;24.30;59.30;;;;;;5086146;28;20036;-83
2023/07/30 11:04:15;;;;;;;5.80;2.80;;;24.30;59.20;;;;;;5070422;28;20048;-87
2023/07/30 11:06:49;;;;;;;3.58;2.58;;;24.30;59.60;;;;;;5066914;28;20025;-86
2023/07/30 11:09:23;;;;;;;6.18;2.80;;;24.30;58.30;;;;;;5066710;28;20028;-85
2023/07/30 11:11:50;;;;;;;4.22;2.78;;;24.20;58.10;;;;;;5061617;28;20125;-86
2023/07/30 11:14:16;;;;;;;;;;;24.10;58.50;;;;;;5067254;28;20036;-85
2023/07/30 11:16:59;;;;;;;5.85;2.30;;;24.00;58.80;;;;;;5035579;28;19912;-87
2023/07/30 11:19:26;;;;;;;4.40;1.88;;;23.90;59.60;;;;;;5045755;28;20028;-85
2023/07/30 11:21:53;;;;;;;6.93;2.55;;;23.90;59.30;;;;;;5059719;28;20082;-86
2023/07/30 11:24:20;;;;;;;3.35;2.55;;;23.90;59.40;;;;;;5062035;28;20044;-85
2023/07/30 11:27:00;;;;;;;5.00;2.28;;;23.90;59.50;;;;;;5057742;28;20032;-88
2023/07/30 11:29:27;;;;;;;3.20;2.20;;;23.80;59.80;;;;;;5047977;28;20029;-87
2023/07/30 11:31:57;;;;;;;6.60;2.80;;;23.80;60.00;;;;;;5070194;28;20078;-86
2023/07/30 11:34:24;;;;;;;5.07;2.38;;;23.80;59.50;;;;;;5059320;28;20402;-85
2023/07/30 11:36:50;;;;;;;4.67;2.47;;;23.90;58.80;;;;;;5026604;28;20034;-88
2023/07/30 11:39:16;;;;;;;3.72;2.30;;;24.00;58.70;;;;;;5059530;28;20259;-87
2023/07/30 11:41:42;;;;;;;4.68;2.20;;;24.10;58.70;;;;;;5040496;28;20120;-87
2023/07/30 11:44:08;;;;;;;6.32;2.17;;;24.30;58.00;;;;;;5066819;28;20029;-87
2023/07/30 11:46:36;;;;;;;8.67;2.97;;;24.60;57.30;;;;;;5045268;28;20033;-86
2023/07/30 11:49:16;;;;;;;;;;;24.80;57.70;;;;;;5055940;28;20029;-84
2023/07/30 11:51:42;;;;;;;4.45;2.38;;;25.00;57.60;;;;;;5038924;28;19908;-83
2023/07/30 11:54:25;;;;;;;4.20;2.67;;;25.00;56.10;;;;;;5073229;28;20028;-82
2023/07/30 11:56:55;;;;;;;3.20;2.63;;;24.80;56.90;;;;;;5054229;28;20049;-87
2023/07/30 11:59:22;;;;;;;5.53;2.30;;;24.60;57.20;;;;;;5089722;28;20078;-86
2023/07/30 12:01:48;;;;;;;3.58;2.15;;;24.40;57.10;;;;;;5088348;28;20029;-84
2023/07/30 12:04:14;;;;;;;4.80;2.30;;;24.30;57.70;;;;;;5074906;28;20033;-86
2023/07/30 12:06:48;;;;;;;3.13;2.17;;;24.20;57.20;;;;;;5064867;28;20041;-84
2023/07/30 12:09:22;;;;;;;5.65;2.75;;;24.10;57.80;;;;;;5063337;28;20398;-81
2023/07/30 12:11:56;;;;;;;6.13;3.50;;;24.00;58.80;;;;;;5025682;28;20037;-80
2023/07/30 12:14:29;;;;;;;3.30;2.60;;;24.00;59.40;;;;;;5021016;28;20095;-83
2023/07/30 12:16:58;;;;;;;4.88;2.45;;;24.00;59.60;;;;;;5037544;28;20048;-81
2023/07/30 12:19:24;;;;;;;4.85;3.25;;;24.20;59.00;;;;;;5071747;28;20017;-87
2023/07/30 12:21:50;;;;;;;4.13;2.88;;;24.40;59.20;;;;;;5070215;28;20449;-88
2023/07/30 12:24:16;;;;;;;4.15;2.80;;;24.60;58.40;;;;;;5053760;28;20048;-84
2023/07/30 12:26:42;;;;;;;4.93;3.17;;;24.80;58.70;;;;;;5049041;28;20025;-86
2023/07/30 12:29:08;;;;;;;5.50;2.90;;;25.00;59.00;;;;;;5051650;28;20029;-85
2023/07/30 12:31:37;;;;;;;4.88;2.83;;;25.20;58.00;;;;;;5071740;28;20031;-85
2023/07/30 12:34:03;;;;;;;4.38;2.53;;;25.30;56.60;;;;;;5064847;28;20040;-84
2023/07/30 12:36:29;;;;;;;8.68;2.90;;;25.30;55.60;;;;;;5052956;28;20032;-82
2023/07/30 12:38:55;;;;;;;3.67;2.83;;;25.20;55.10;;;;;;5039098;28;20025;-81
2023/07/30 12:41:26;;;;;;;5.10;2.50;;;25.10;55.80;;;;;;5047042;28;20036;-81